Terminal Aerodrome Forecast
Issued by NWS

Current Version | Previous Version | Text Only | Print | Product List | Glossary On
Versions: 1 2 3 4 5 6 7 8 9 10 11 12 13 14 15 16 17 18 19
000
FTUS45 KTFX 210600 AAA
TAFGTF
TAF AMD
KGTF 210620Z 2106/2206 31010KT P6SM -SHRA SCT015 OVC060
      TEMPO 2107/2109 RA BKN015
     FM211000 32005KT P6SM -RA SCT020 OVC050 PROB30 2115/2121 5SM
      -RA BR OVC025
     FM212300 03007KT P6SM SCT030 OVC060=

USA.gov is the U.S. government's official web portal to all federal, state and local government web resources and services.